Weather at Grønholt Hillerød Airfield

Public forecast

Using degrees Celsius for public forecast. Weather courtesy of forecast.io.

Closest aviation weather report (METAR) to Grønholt Hillerød Airfield

Report is more than 6 hours old.

Closest report is Copenhagen Kastrup Airport, 21.5 nm (39.8 km) SSE.

2022/11/14 15:20 (retrieved 2 years ago)

EKCH 141520Z 12011KT 9999 BKN012 10/07 Q1019 NOSIG

Closest aviation forecast (TAF) to Grønholt Hillerød Airfield

Forecast is more than 12 hours old.

Closest forecast is Copenhagen Kastrup Airport, 21.5 nm (39.8 km) SSE.

2023/02/22 18:00 (retrieved 1 year ago)

TAF EKCH 221705Z 2218/2318 13015KT 9999 BKN025 TEMPO 2218/2305 14015G25KT BECMG 2305/2307 BKN012 TEMPO 2307/2318 4000 RADZ BKN005 BECMG 2316/2318 30010KT